Time;durP1;ratioP1;P1;durP2;ratioP2;P2;SDS_P1;SDS_P2;PMS_P1;PMS_P2;Temp;Humidity;BMP_temperature;BMP_pressure;BME280_temperature;BME280_humidity;BME280_pressure;Samples;Min_cycle;Max_cycle;Signal;HPM_P1;HPM_P2
2022/03/21 00:01:10;;;;;;;54.30;31.17;;;6.30;99.90;;;;;;6181079;23;20009;-70
2022/03/21 00:03:38;;;;;;;49.50;29.77;;;6.40;99.90;;;;;;6182488;23;20049;-69
2022/03/21 00:06:08;;;;;;;50.72;29.80;;;6.40;99.90;;;;;;6181394;23;20017;-70
2022/03/21 00:08:37;;;;;;;51.53;29.17;;;6.40;99.90;;;;;;6182185;23;20011;-70
2022/03/21 00:11:13;;;;;;;46.57;28.17;;;6.40;99.90;;;;;;6182881;23;20090;-70
2022/03/21 00:13:41;;;;;;;47.05;26.95;;;6.50;99.90;;;;;;6183840;23;20213;-69
2022/03/21 00:16:12;;;;;;;42.85;26.05;;;6.50;99.90;;;;;;6183923;23;20029;-71
2022/03/21 00:18:38;;;;;;;43.47;26.65;;;6.50;99.90;;;;;;6184323;23;20021;-70
2022/03/21 00:21:04;;;;;;;45.90;26.58;;;6.50;99.90;;;;;;6184352;23;20017;-70
2022/03/21 00:23:31;;;;;;;42.55;25.15;;;6.50;99.90;;;;;;6183429;23;20016;-70
2022/03/21 00:25:57;;;;;;;39.85;24.30;;;6.50;99.90;;;;;;6158698;23;20037;-70
2022/03/21 00:28:28;;;;;;;35.25;22.38;;;6.50;99.90;;;;;;6183512;23;20010;-70
2022/03/21 00:30:56;;;;;;;38.80;22.45;;;6.50;99.90;;;;;;6184197;23;20052;-70
2022/03/21 00:33:22;;;;;;;38.60;21.85;;;6.50;99.90;;;;;;6183417;23;20008;-70
2022/03/21 00:35:51;;;;;;;34.78;21.55;;;6.50;99.90;;;;;;6208426;23;20057;-70
2022/03/21 00:38:18;;;;;;;33.50;19.90;;;6.50;99.90;;;;;;6182544;23;20005;-69
2022/03/21 00:40:45;;;;;;;32.50;20.27;;;6.50;99.90;;;;;;6183597;23;20002;-70
2022/03/21 00:43:17;;;;;;;33.72;19.60;;;6.50;99.90;;;;;;6184104;23;19997;-70
2022/03/21 00:45:43;;;;;;;33.08;18.88;;;6.50;99.90;;;;;;6182294;23;20009;-69
2022/03/21 00:48:17;;;;;;;29.48;18.42;;;6.50;99.90;;;;;;6183218;23;20009;-70
2022/03/21 00:50:43;;;;;;;31.80;17.88;;;6.50;99.90;;;;;;6183204;23;20033;-70
2022/03/21 00:53:09;;;;;;;29.73;16.95;;;6.50;99.90;;;;;;6158208;23;20045;-70
2022/03/21 00:55:35;;;;;;;28.35;16.17;;;6.50;99.90;;;;;;6157855;23;20001;-70
2022/03/21 00:58:00;;;;;;;30.52;17.85;;;6.50;99.90;;;;;;6183982;23;20020;-70
2022/03/21 01:00:28;;;;;;;30.05;16.95;;;6.60;99.90;;;;;;6183043;23;20002;-70
2022/03/21 01:02:58;;;;;;;26.65;16.48;;;6.60;99.90;;;;;;6183218;23;20032;-70
2022/03/21 01:05:25;;;;;;;29.58;16.77;;;6.50;99.90;;;;;;6183678;23;20025;-69
2022/03/21 01:07:52;;;;;;;32.70;16.83;;;6.50;99.90;;;;;;6183552;23;20013;-70
2022/03/21 01:10:19;;;;;;;26.38;15.70;;;6.60;99.90;;;;;;6183166;23;20009;-70
2022/03/21 01:12:50;;;;;;;25.25;16.83;;;6.50;99.90;;;;;;6183156;23;20009;-70
2022/03/21 01:15:23;;;;;;;27.30;16.10;;;6.50;99.90;;;;;;6158819;23;20016;-70
2022/03/21 01:17:55;;;;;;;26.75;16.00;;;6.60;99.90;;;;;;6158065;23;20001;-70
2022/03/21 01:20:24;;;;;;;26.83;15.07;;;6.50;99.90;;;;;;6182766;23;19998;-70
2022/03/21 01:22:50;;;;;;;29.30;15.90;;;6.50;99.90;;;;;;6157885;23;20009;-70
2022/03/21 01:25:17;;;;;;;25.92;16.25;;;6.50;99.90;;;;;;6182794;23;20045;-70
2022/03/21 01:27:43;;;;;;;30.73;16.30;;;6.50;99.90;;;;;;6182454;23;20061;-70
2022/03/21 01:30:16;;;;;;;23.55;15.55;;;6.50;99.90;;;;;;6158630;23;20025;-70
2022/03/21 01:32:43;;;;;;;24.85;16.45;;;6.50;99.90;;;;;;6183377;23;20020;-70
2022/03/21 01:35:13;;;;;;;27.67;16.35;;;6.50;99.90;;;;;;6182196;23;20061;-70
2022/03/21 01:37:39;;;;;;;;;;;6.50;99.90;;;;;;6183477;23;20033;-70
2022/03/21 01:40:07;;;;;;;28.23;15.95;;;6.50;99.90;;;;;;6183076;23;19920;-70
2022/03/21 01:42:33;;;;;;;25.13;15.75;;;6.40;99.90;;;;;;6158898;23;20033;-70
2022/03/21 01:44:59;;;;;;;28.27;16.05;;;6.40;99.90;;;;;;6182624;23;20033;-70
2022/03/21 01:47:33;;;;;;;24.15;15.15;;;6.40;99.90;;;;;;6182358;23;20023;-70
2022/03/21 01:50:03;;;;;;;29.85;16.83;;;6.40;99.90;;;;;;6182694;23;20016;-69
2022/03/21 01:52:29;;;;;;;29.90;17.55;;;6.40;99.90;;;;;;6183598;23;20018;-70
2022/03/21 01:57:55;;;;;;;28.40;16.85;;;6.40;99.90;;;;;;6182869;23;20053;-70
2022/03/21 02:00:25;;;;;;;26.30;16.10;;;6.40;99.90;;;;;;6182801;23;20044;-70
2022/03/21 02:02:51;;;;;;;30.98;16.33;;;6.40;99.90;;;;;;6182279;23;20013;-70
2022/03/21 02:05:17;;;;;;;26.88;16.67;;;6.30;99.90;;;;;;6182637;23;20001;-70
2022/03/21 02:07:44;;;;;;;25.85;16.77;;;6.40;99.90;;;;;;6206824;23;20016;-69
2022/03/21 02:10:18;;;;;;;28.25;17.38;;;6.40;99.90;;;;;;6182912;23;20040;-70
2022/03/21 02:12:46;;;;;;;28.10;17.00;;;6.40;99.90;;;;;;6183067;23;20001;-70
2022/03/21 02:15:12;;;;;;;28.73;17.15;;;6.30;99.90;;;;;;6183200;23;20003;-70
2022/03/21 02:17:42;;;;;;;27.48;16.70;;;6.30;99.90;;;;;;6182090;23;20046;-70
2022/03/21 02:20:16;;;;;;;29.13;16.35;;;6.30;99.90;;;;;;6157187;23;20010;-70
2022/03/21 02:23:01;;;;;;;33.75;18.38;;;6.30;99.90;;;;;;6182030;23;20009;-70
2022/03/21 02:25:45;;;;;;;28.55;16.52;;;6.30;99.90;;;;;;6182190;23;20029;-70
2022/03/21 02:28:14;;;;;;;33.95;17.27;;;6.30;99.90;;;;;;6182239;23;19998;-70
2022/03/21 02:30:52;;;;;;;29.70;17.00;;;6.30;99.90;;;;;;6182230;23;20024;-70
2022/03/21 02:33:19;;;;;;;27.75;17.27;;;6.30;99.90;;;;;;6182807;23;20132;-70
2022/03/21 02:35:51;;;;;;;31.52;17.50;;;6.20;99.90;;;;;;6158279;23;20006;-70
2022/03/21 02:38:19;;;;;;;28.60;15.77;;;6.20;99.90;;;;;;6182597;23;20017;-70
2022/03/21 02:40:45;;;;;;;24.88;15.25;;;6.20;99.90;;;;;;6183193;23;20032;-70
2022/03/21 02:43:11;;;;;;;26.95;16.17;;;6.20;99.90;;;;;;6183018;23;20021;-70
2022/03/21 02:45:44;;;;;;;25.98;15.88;;;6.10;99.90;;;;;;6182299;23;20049;-70
2022/03/21 02:48:14;;;;;;;31.30;16.73;;;6.10;99.90;;;;;;6181974;23;20009;-70
2022/03/21 02:50:55;;;;;;;30.10;17.02;;;6.10;99.90;;;;;;6157836;23;20015;-70
2022/03/21 02:53:29;;;;;;;30.30;15.98;;;6.00;99.90;;;;;;6182144;23;20005;-70
2022/03/21 02:55:56;;;;;;;24.02;15.60;;;6.00;99.90;;;;;;6157350;23;20174;-70
2022/03/21 02:58:22;;;;;;;27.15;15.82;;;5.90;99.90;;;;;;6182277;23;20005;-70
2022/03/21 03:00:48;;;;;;;28.92;16.05;;;5.90;99.90;;;;;;6182496;23;20020;-70
2022/03/21 03:03:14;;;;;;;29.33;15.75;;;5.80;99.90;;;;;;6182301;23;20005;-70
2022/03/21 03:05:40;;;;;;;30.08;16.83;;;5.80;99.90;;;;;;6181905;23;20017;-70
2022/03/21 03:08:10;;;;;;;27.23;15.98;;;5.70;99.90;;;;;;6181740;23;20024;-69
2022/03/21 03:10:36;;;;;;;30.77;16.98;;;5.60;99.90;;;;;;6206460;23;20018;-69
2022/03/21 03:13:02;;;;;;;28.75;16.92;;;5.60;99.90;;;;;;6182313;23;20004;-70
2022/03/21 03:15:30;;;;;;;25.70;15.90;;;5.50;99.90;;;;;;6181564;23;20017;-70
2022/03/21 03:18:01;;;;;;;25.77;15.77;;;5.50;99.90;;;;;;6181412;23;20013;-70
2022/03/21 03:20:34;;;;;;;31.80;15.95;;;5.40;99.90;;;;;;6156927;23;20010;-70
2022/03/21 03:23:02;;;;;;;28.30;15.90;;;5.50;99.90;;;;;;6181972;23;20009;-69
2022/03/21 03:25:28;;;;;;;26.77;15.63;;;5.40;99.90;;;;;;6182722;23;20017;-70
2022/03/21 03:27:54;;;;;;;28.83;16.55;;;5.40;99.90;;;;;;6182213;23;20021;-69
2022/03/21 03:30:22;;;;;;;31.23;16.45;;;5.30;99.90;;;;;;6182430;23;20017;-69
2022/03/21 03:32:50;;;;;;;33.10;16.75;;;5.20;99.90;;;;;;6182390;23;20025;-70
2022/03/21 03:35:19;;;;;;;29.38;15.55;;;5.20;99.90;;;;;;6181738;23;20068;-70
2022/03/21 03:37:59;;;;;;;28.17;17.10;;;5.10;99.90;;;;;;6181720;23;20041;-70
2022/03/21 03:40:25;;;;;;;27.40;15.55;;;5.10;99.90;;;;;;6151570;23;20014;-69
2022/03/21 03:43:01;;;;;;;27.00;15.57;;;5.00;99.90;;;;;;6152032;23;20013;-70
2022/03/21 03:45:29;;;;;;;30.75;17.02;;;5.00;99.90;;;;;;6128817;23;20017;-70
2022/03/21 03:48:02;;;;;;;26.35;15.88;;;5.00;99.90;;;;;;6129006;23;20029;-70
2022/03/21 03:50:28;;;;;;;28.52;16.17;;;4.90;99.90;;;;;;6128609;23;20046;-70
2022/03/21 03:52:54;;;;;;;24.63;15.20;;;4.90;99.90;;;;;;6128843;23;19998;-69
2022/03/21 03:55:24;;;;;;;25.60;16.10;;;4.80;99.90;;;;;;6129247;23;20041;-69
2022/03/21 03:58:01;;;;;;;26.75;16.00;;;4.80;99.90;;;;;;6153331;23;19998;-70
2022/03/21 04:00:30;;;;;;;25.35;15.63;;;4.80;99.90;;;;;;6129034;23;20049;-70
2022/03/21 04:05:49;;;;;;;26.77;15.15;;;4.70;99.90;;;;;;6180430;23;20018;-69
2022/03/21 04:08:20;;;;;;;29.02;15.50;;;4.70;99.90;;;;;;6183534;23;20009;-69
2022/03/21 04:10:55;;;;;;;28.05;16.50;;;4.60;99.90;;;;;;6183580;23;20037;-70
2022/03/21 04:13:28;;;;;;;26.75;15.52;;;4.50;99.90;;;;;;6158835;23;20025;-70
2022/03/21 04:15:57;;;;;;;26.30;16.30;;;4.50;99.90;;;;;;6158572;23;19998;-70
2022/03/21 04:18:30;;;;;;;26.75;14.95;;;4.30;99.90;;;;;;6184098;23;20005;-69
2022/03/21 04:20:56;;;;;;;31.48;16.00;;;4.40;99.90;;;;;;6158402;23;20540;-70
2022/03/21 04:23:22;;;;;;;23.70;15.07;;;4.30;99.90;;;;;;6184347;23;20013;-70
2022/03/21 04:25:48;;;;;;;25.90;14.98;;;4.20;99.90;;;;;;6183247;23;20010;-70
2022/03/21 04:28:15;;;;;;;26.40;16.30;;;4.10;99.90;;;;;;6183357;23;20006;-69
2022/03/21 04:30:41;;;;;;;27.60;16.75;;;4.10;99.90;;;;;;6183309;23;20323;-70
2022/03/21 04:33:24;;;;;;;;;;;;;;;;;;;;;
2022/03/21 04:35:50;;;;;;;24.77;14.43;;;4.00;99.90;;;;;;6183248;23;20016;-70
2022/03/21 04:38:17;;;;;;;24.55;13.63;;;3.90;99.90;;;;;;6184197;23;20025;-70
2022/03/21 04:40:59;;;;;;;22.02;13.50;;;3.90;99.90;;;;;;6183390;23;20084;-69
2022/03/21 04:43:37;;;;;;;;;;;;;;;;;;;;;
2022/03/21 04:46:03;;;;;;;18.63;12.35;;;3.80;99.90;;;;;;6183143;23;20044;-70
2022/03/21 04:48:29;;;;;;;24.75;14.13;;;3.80;99.90;;;;;;6184394;23;20057;-70
2022/03/21 04:50:55;;;;;;;24.10;14.00;;;3.70;99.90;;;;;;6158795;23;20450;-70
2022/03/21 04:53:21;;;;;;;23.40;14.00;;;3.70;99.90;;;;;;6158526;23;20016;-69
2022/03/21 04:55:55;;;;;;;19.90;12.45;;;3.60;99.90;;;;;;6182573;23;20001;-70
2022/03/21 04:58:20;;;;;;;22.95;13.55;;;3.60;99.90;;;;;;6183159;23;20021;-70
2022/03/21 05:00:46;;;;;;;23.02;14.40;;;3.50;99.90;;;;;;6159174;23;20028;-70
2022/03/21 05:03:12;;;;;;;21.77;13.82;;;3.50;99.90;;;;;;6182897;23;20449;-69
2022/03/21 05:05:41;;;;;;;24.35;14.88;;;3.40;99.90;;;;;;6184139;23;20058;-70
2022/03/21 05:08:06;;;;;;;28.90;15.07;;;3.50;99.90;;;;;;6183767;23;20024;-69
2022/03/21 05:10:32;;;;;;;22.75;14.55;;;3.40;99.90;;;;;;6184211;23;20014;-70
2022/03/21 05:13:06;;;;;;;25.38;14.95;;;3.40;99.90;;;;;;6183140;23;20010;-69
2022/03/21 05:15:32;;;;;;;25.33;15.70;;;3.30;99.90;;;;;;6183806;23;20072;-70
2022/03/21 05:17:58;;;;;;;25.55;15.70;;;3.40;99.90;;;;;;6184606;23;20013;-69
2022/03/21 05:20:25;;;;;;;24.40;15.70;;;3.30;99.90;;;;;;6184551;23;20005;-70
2022/03/21 05:31:15;;;;;;;;;;;3.10;99.90;;;;;;6184165;23;20006;-69
2022/03/21 05:36:32;;;;;;;25.60;16.23;;;3.00;99.90;;;;;;6182446;23;20018;-69
2022/03/21 05:39:01;;;;;;;26.23;16.65;;;3.00;99.90;;;;;;6158087;23;20032;-69
2022/03/21 05:41:27;;;;;;;27.88;17.17;;;3.00;99.90;;;;;;6207924;23;20068;-69
2022/03/21 05:43:53;;;;;;;30.13;17.45;;;2.90;99.90;;;;;;6158055;23;20013;-69
2022/03/21 05:46:22;;;;;;;29.83;17.45;;;2.90;99.90;;;;;;6152795;23;20005;-69
2022/03/21 05:48:51;;;;;;;;;;;2.90;99.90;;;;;;6157982;23;20387;-69
2022/03/21 05:51:23;;;;;;;26.52;15.65;;;2.90;99.90;;;;;;6182012;23;19917;-70
2022/03/21 05:53:50;;;;;;;26.80;16.75;;;2.90;99.90;;;;;;6158150;23;20006;-69
2022/03/21 05:56:18;;;;;;;26.20;14.98;;;2.80;99.90;;;;;;6181864;23;20009;-69
2022/03/21 05:58:45;;;;;;;22.50;13.30;;;2.90;99.90;;;;;;6182077;23;19997;-69
2022/03/21 06:01:11;;;;;;;20.98;12.95;;;2.80;99.90;;;;;;6182199;23;20033;-69
2022/03/21 06:03:43;;;;;;;20.35;11.00;;;2.80;99.90;;;;;;6182525;23;20036;-69
2022/03/21 06:06:10;;;;;;;13.07;9.25;;;2.70;99.90;;;;;;6182153;23;20024;-69
2022/03/21 06:08:39;;;;;;;12.88;9.25;;;2.70;99.90;;;;;;6157831;23;20053;-69
2022/03/21 06:11:08;;;;;;;11.88;8.10;;;2.70;99.90;;;;;;6156888;23;20014;-69
2022/03/21 06:13:36;;;;;;;11.48;7.93;;;2.70;99.90;;;;;;6157572;23;20009;-69
2022/03/21 06:16:04;;;;;;;11.57;8.27;;;2.70;99.90;;;;;;6182052;23;20010;-69
2022/03/21 06:18:37;;;;;;;9.45;7.32;;;2.70;99.90;;;;;;6157349;23;20006;-69
2022/03/21 06:21:11;;;;;;;9.80;7.07;;;2.60;99.90;;;;;;6158258;23;20001;-69
2022/03/21 06:23:37;;;;;;;8.35;6.55;;;2.60;99.90;;;;;;6181700;23;20043;-69
2022/03/21 06:26:07;;;;;;;8.88;6.78;;;2.60;99.90;;;;;;6157599;23;20009;-69
2022/03/21 06:28:35;;;;;;;9.63;6.55;;;2.60;99.90;;;;;;6157385;23;20021;-69
2022/03/21 06:31:01;;;;;;;9.20;7.00;;;2.60;99.90;;;;;;6181987;23;20014;-69
2022/03/21 06:33:29;;;;;;;9.30;6.93;;;2.60;99.90;;;;;;6182382;23;20070;-69
2022/03/21 06:35:57;;;;;;;13.45;9.15;;;2.60;99.90;;;;;;6181885;23;20008;-69
2022/03/21 06:38:23;;;;;;;11.50;9.30;;;2.60;99.90;;;;;;6181306;23;20426;-70
2022/03/21 06:40:50;;;;;;;12.90;9.45;;;2.60;99.90;;;;;;6182816;23;20002;-69
2022/03/21 06:43:17;;;;;;;20.75;12.90;;;2.70;99.90;;;;;;6182029;23;19998;-69
2022/03/21 06:45:43;;;;;;;15.63;10.80;;;2.80;99.90;;;;;;6181548;23;20013;-68
2022/03/21 06:48:09;;;;;;;18.63;12.40;;;2.80;99.90;;;;;;6181620;23;20028;-70
2022/03/21 06:50:35;;;;;;;21.20;13.32;;;2.80;99.90;;;;;;6181926;23;20016;-69
2022/03/21 06:53:22;;;;;;;18.52;12.68;;;2.90;99.90;;;;;;6181690;23;20028;-69
2022/03/21 06:55:50;;;;;;;22.80;14.68;;;3.00;99.90;;;;;;6182130;23;20054;-69
2022/03/21 06:58:16;;;;;;;22.08;13.98;;;3.10;99.90;;;;;;6182887;23;20013;-68
2022/03/21 07:00:43;;;;;;;21.02;14.77;;;3.20;99.90;;;;;;6157460;23;20021;-69
2022/03/21 07:03:15;;;;;;;;;;;3.20;99.90;;;;;;6158469;23;20001;-69
2022/03/21 07:05:41;;;;;;;29.83;16.97;;;3.30;99.90;;;;;;6156875;23;19931;-69
2022/03/21 07:08:17;;;;;;;31.95;19.63;;;3.40;99.90;;;;;;6181929;23;20005;-69
2022/03/21 07:10:44;;;;;;;26.70;17.10;;;3.50;99.90;;;;;;6157414;23;20005;-69
2022/03/21 07:13:11;;;;;;;24.45;16.77;;;3.60;99.90;;;;;;6182032;23;20009;-68
2022/03/21 07:15:42;;;;;;;24.10;15.65;;;3.80;99.90;;;;;;6157523;23;20029;-70
2022/03/21 07:18:11;;;;;;;25.33;16.95;;;3.80;99.90;;;;;;6181367;23;20017;-70
2022/03/21 07:20:43;;;;;;;29.80;17.80;;;4.00;99.90;;;;;;6157182;23;20527;-69
2022/03/21 07:23:12;;;;;;;33.88;21.23;;;4.10;99.90;;;;;;6180414;23;20334;-69
2022/03/21 07:25:38;;;;;;;36.03;21.63;;;4.20;99.90;;;;;;6182342;23;20017;-69
2022/03/21 07:28:09;;;;;;;36.00;23.10;;;4.40;99.90;;;;;;6157456;23;20029;-70
2022/03/21 07:30:35;;;;;;;39.75;23.80;;;4.50;99.90;;;;;;6181657;23;19997;-69
2022/03/21 07:33:04;;;;;;;40.53;24.20;;;4.70;99.90;;;;;;6157282;23;20010;-70
2022/03/21 07:35:32;;;;;;;40.75;24.38;;;4.90;99.90;;;;;;6182854;23;20017;-69
2022/03/21 07:38:03;;;;;;;38.53;23.25;;;5.10;99.90;;;;;;6181695;23;20001;-70
2022/03/21 07:40:30;;;;;;;36.90;22.90;;;5.30;99.90;;;;;;6182792;23;20028;-70
2022/03/21 07:42:56;;;;;;;39.45;22.48;;;5.50;99.90;;;;;;6132565;23;20012;-71
2022/03/21 07:48:26;;;;;;;38.55;22.85;;;6.00;99.90;;;;;;6182618;23;20017;-70
2022/03/21 07:50:53;;;;;;;38.90;23.23;;;6.20;99.90;;;;;;6181433;23;20005;-69
2022/03/21 07:53:22;;;;;;;40.47;23.90;;;6.40;99.90;;;;;;6173633;23;20021;-70
2022/03/21 07:55:48;;;;;;;40.83;22.77;;;6.60;99.90;;;;;;6181625;23;20024;-70
2022/03/21 07:58:14;;;;;;;40.50;22.52;;;6.90;99.90;;;;;;6182266;23;20005;-70
2022/03/21 08:00:41;;;;;;;36.90;20.25;;;7.10;99.90;;;;;;6182399;23;20021;-72
2022/03/21 08:03:11;;;;;;;33.75;19.63;;;7.30;99.90;;;;;;6157191;23;20013;-71
2022/03/21 08:05:37;;;;;;;31.17;18.42;;;7.40;99.90;;;;;;6181878;23;20030;-70
2022/03/21 08:08:04;;;;;;;30.65;18.38;;;7.60;99.90;;;;;;6181952;23;20029;-71
2022/03/21 08:10:30;;;;;;;33.17;19.45;;;7.90;99.90;;;;;;6182053;23;20002;-71
2022/03/21 08:12:57;;;;;;;30.83;18.40;;;8.10;99.90;;;;;;6157485;23;20014;-70
2022/03/21 08:15:23;;;;;;;30.00;18.10;;;8.40;99.90;;;;;;6182209;23;20054;-70
2022/03/21 08:17:59;;;;;;;29.92;17.75;;;8.50;99.90;;;;;;6181334;23;20043;-71
2022/03/21 08:20:34;;;;;;;29.23;17.08;;;8.70;99.90;;;;;;6182417;23;20036;-75
2022/03/21 08:23:05;;;;;;;25.80;16.88;;;8.90;99.90;;;;;;6133250;23;20001;-71
2022/03/21 08:25:33;;;;;;;27.10;17.02;;;9.10;99.90;;;;;;6156305;23;20016;-71
2022/03/21 08:28:00;;;;;;;29.85;16.75;;;9.30;99.90;;;;;;6181285;23;20009;-71
2022/03/21 08:30:29;;;;;;;30.95;16.83;;;9.60;99.90;;;;;;6157199;23;19998;-71
2022/03/21 08:33:01;;;;;;;24.60;15.98;;;9.80;99.90;;;;;;6183279;23;20008;-71
2022/03/21 08:35:32;;;;;;;30.23;16.05;;;9.90;99.90;;;;;;6159477;23;20024;-72
2022/03/21 08:38:00;;;;;;;29.75;16.98;;;10.00;99.90;;;;;;6159072;23;20065;-71
2022/03/21 08:40:26;;;;;;;26.85;16.42;;;10.40;99.90;;;;;;6158996;23;20013;-72
2022/03/21 08:42:53;;;;;;;25.48;15.82;;;10.50;99.90;;;;;;6158787;23;20016;-72
2022/03/21 08:45:21;;;;;;;23.40;15.20;;;10.60;99.90;;;;;;6184009;23;20015;-72
2022/03/21 08:47:53;;;;;;;23.98;14.43;;;10.70;99.90;;;;;;6183544;23;20009;-71
2022/03/21 08:50:20;;;;;;;26.60;15.23;;;10.90;99.90;;;;;;6183279;23;20065;-71
2022/03/21 08:52:46;;;;;;;24.08;15.82;;;11.00;99.90;;;;;;6183391;23;20002;-71
2022/03/21 08:55:13;;;;;;;27.13;15.73;;;11.20;99.90;;;;;;6183405;23;20017;-71
2022/03/21 08:57:40;;;;;;;27.13;15.00;;;11.40;99.90;;;;;;6183253;23;20013;-71
2022/03/21 09:00:10;;;;;;;27.67;14.60;;;11.50;99.90;;;;;;6183038;23;20057;-72
2022/03/21 09:02:36;;;;;;;24.60;14.63;;;11.70;99.90;;;;;;6179980;23;19998;-73
2022/03/21 09:05:07;;;;;;;25.08;14.80;;;11.80;99.90;;;;;;6158916;23;20029;-71
2022/03/21 09:07:33;;;;;;;30.25;15.50;;;11.90;99.90;;;;;;6183636;23;20008;-72
2022/03/21 09:10:01;;;;;;;26.63;14.27;;;12.10;99.90;;;;;;6183639;23;20013;-72
2022/03/21 09:12:27;;;;;;;25.17;15.57;;;12.10;99.90;;;;;;6183796;23;20037;-71
2022/03/21 09:14:53;;;;;;;28.38;16.65;;;12.20;99.90;;;;;;6159355;23;20032;-71
2022/03/21 09:17:20;;;;;;;29.35;16.20;;;12.30;99.90;;;;;;6159065;23;20020;-72
2022/03/21 09:19:46;;;;;;;24.90;15.23;;;12.40;99.90;;;;;;6184485;23;20016;-71
2022/03/21 09:22:12;;;;;;;23.48;15.27;;;12.50;99.90;;;;;;6159081;23;20008;-73
2022/03/21 09:24:39;;;;;;;23.88;15.85;;;12.50;99.90;;;;;;6183949;23;20018;-71
2022/03/21 09:27:05;;;;;;;25.08;15.35;;;12.40;99.90;;;;;;6158953;23;20008;-72
2022/03/21 09:29:32;;;;;;;28.35;16.05;;;12.50;99.90;;;;;;6159464;23;20038;-71
2022/03/21 10:00:28;;;;;;;27.50;15.77;;;13.80;99.90;;;;;;6234774;23;20020;-70
2022/03/21 10:02:56;;;;;;;26.88;16.58;;;13.90;99.90;;;;;;6193373;23;20008;-70
2022/03/21 10:05:31;;;;;;;35.17;18.52;;;13.90;99.90;;;;;;6217886;23;20005;-70
2022/03/21 10:08:22;;;;;;;33.60;17.80;;;14.00;99.90;;;;;;6193002;23;20012;-71
2022/03/21 10:10:58;;;;;;;26.45;17.40;;;14.00;99.90;;;;;;6218187;23;20009;-71
2022/03/21 10:13:28;;;;;;;30.08;19.05;;;14.00;99.90;;;;;;6218018;23;20040;-71
2022/03/21 10:16:18;;;;;;;29.35;16.88;;;14.10;99.90;;;;;;6217950;23;20052;-70
2022/03/21 10:18:53;;;;;;;29.85;18.60;;;14.20;99.90;;;;;;6218067;23;20007;-70
2022/03/21 10:21:21;;;;;;;32.08;18.50;;;14.30;99.90;;;;;;6218233;23;20004;-72
2022/03/21 10:24:07;;;;;;;32.78;18.85;;;14.30;99.90;;;;;;6193160;23;20012;-73
2022/03/21 10:26:34;;;;;;;29.80;19.08;;;14.40;97.80;;;;;;6193004;22;20035;-72
2022/03/21 10:29:07;;;;;;;35.33;20.38;;;14.40;99.90;;;;;;6193081;23;20072;-72
2022/03/21 10:31:44;;;;;;;33.75;19.27;;;14.40;97.50;;;;;;6218232;23;20075;-72
2022/03/21 10:34:16;;;;;;;34.15;20.77;;;14.30;93.80;;;;;;6193552;23;20007;-70
2022/03/21 10:37:01;;;;;;;35.70;20.60;;;14.40;95.20;;;;;;6217961;22;20020;-72
2022/03/21 10:39:28;;;;;;;36.63;20.75;;;14.50;92.30;;;;;;6193499;23;20000;-73
2022/03/21 10:42:03;;;;;;;36.08;19.77;;;14.50;93.70;;;;;;6193449;23;20068;-74
2022/03/21 10:44:30;;;;;;;36.38;20.27;;;14.50;87.80;;;;;;6218666;23;20016;-72
2022/03/21 10:47:00;;;;;;;37.85;21.50;;;14.60;91.50;;;;;;6193151;23;20001;-71
2022/03/21 10:49:35;;;;;;;35.70;20.70;;;14.70;90.80;;;;;;6217789;23;20106;-72
2022/03/21 10:52:03;;;;;;;33.67;20.23;;;14.80;83.00;;;;;;6169002;22;20020;-73
2022/03/21 10:54:48;;;;;;;36.08;21.15;;;14.90;86.10;;;;;;6217928;22;20031;-73
2022/03/21 10:57:33;;;;;;;36.30;20.95;;;15.10;72.50;;;;;;6194419;23;20001;-72
2022/03/21 11:00:22;;;;;;;37.47;21.10;;;15.20;80.60;;;;;;6212874;23;20012;-70
2022/03/21 11:02:55;;;;;;;33.40;20.87;;;15.30;77.30;;;;;;6212504;23;20004;-70
2022/03/21 11:05:22;;;;;;;36.28;20.70;;;15.30;80.50;;;;;;6188263;23;20027;-71
2022/03/21 11:07:49;;;;;;;35.33;21.85;;;15.50;80.50;;;;;;6187985;23;20052;-72
2022/03/21 11:10:16;;;;;;;35.65;21.17;;;15.40;74.00;;;;;;6188293;23;20013;-72
2022/03/21 11:12:43;;;;;;;36.40;21.88;;;15.40;81.20;;;;;;6188039;23;20048;-70
2022/03/21 12:51:54;;;;;;;35.08;21.27;;;18.10;63.50;;;;;;6184186;23;20013;-71
2022/03/21 12:54:21;;;;;;;35.28;22.55;;;18.10;63.20;;;;;;6159608;23;20045;-71
2022/03/21 12:56:47;;;;;;;32.85;21.05;;;18.20;64.40;;;;;;6159969;23;20001;-71
2022/03/21 18:50:05;;;;;;;51.65;24.65;;;11.70;99.90;;;;;;6165553;23;20027;-71
2022/03/21 18:52:31;;;;;;;41.33;24.77;;;11.60;99.90;;;;;;6207662;23;20025;-72
2022/03/21 19:18:19;;;;;;;43.75;27.55;;;11.20;99.90;;;;;;6204092;23;20021;-72
2022/03/21 19:20:48;;;;;;;43.10;26.85;;;11.10;99.90;;;;;;6163166;23;20017;-74
2022/03/21 19:23:15;;;;;;;48.97;28.80;;;11.10;99.90;;;;;;6188090;23;20099;-73
2022/03/21 19:25:43;;;;;;;49.42;27.27;;;11.00;99.90;;;;;;6187939;23;20033;-74
2022/03/21 19:28:10;;;;;;;44.08;27.55;;;11.00;99.90;;;;;;6202481;23;20020;-73
2022/03/21 19:30:39;;;;;;;41.60;28.05;;;10.90;99.90;;;;;;6162903;23;20024;-72
2022/03/21 21:05:29;;;;;;;50.92;30.77;;;9.00;99.90;;;;;;6191398;23;20017;-73
2022/03/21 21:07:58;;;;;;;52.42;31.10;;;9.00;99.90;;;;;;6193061;23;20059;-73
2022/03/21 21:13:13;;;;;;;53.88;31.50;;;9.00;99.90;;;;;;6182490;23;20020;-73
2022/03/21 21:15:40;;;;;;;49.70;30.48;;;8.90;99.90;;;;;;6182522;23;20106;-74
2022/03/21 21:18:10;;;;;;;48.22;29.83;;;8.90;99.90;;;;;;6157858;23;20045;-74
2022/03/21 21:20:40;;;;;;;47.05;31.15;;;8.90;99.90;;;;;;6157781;23;20013;-73
2022/03/21 21:23:08;;;;;;;49.08;30.13;;;8.80;99.90;;;;;;6157902;23;20001;-73
2022/03/21 21:25:39;;;;;;;51.87;30.37;;;8.90;99.90;;;;;;6182809;23;20023;-73
2022/03/21 21:28:09;;;;;;;53.22;30.98;;;8.80;99.90;;;;;;6182354;23;20013;-72
2022/03/21 21:30:36;;;;;;;56.10;31.30;;;8.70;99.90;;;;;;6157802;23;20013;-74
2022/03/21 21:33:05;;;;;;;51.22;30.35;;;8.70;99.90;;;;;;6181615;23;20041;-73
2022/03/21 21:35:33;;;;;;;51.30;32.35;;;8.70;99.90;;;;;;6132738;23;20057;-73
2022/03/21 21:38:01;;;;;;;51.72;31.08;;;8.60;99.90;;;;;;6132800;23;20066;-73
2022/03/21 21:40:29;;;;;;;55.38;32.63;;;8.60;99.90;;;;;;6157102;23;20012;-72
2022/03/21 21:42:55;;;;;;;52.33;31.23;;;8.60;99.90;;;;;;6167219;22;20012;-74
2022/03/21 21:45:22;;;;;;;57.42;33.22;;;8.60;99.90;;;;;;6243132;23;20015;-73
2022/03/21 21:47:50;;;;;;;56.45;33.45;;;8.60;99.90;;;;;;6217868;23;20004;-73
2022/03/21 21:50:20;;;;;;;51.78;31.45;;;8.60;99.90;;;;;;6193104;23;20052;-73
2022/03/21 21:52:50;;;;;;;56.15;32.78;;;8.50;99.90;;;;;;6217160;23;20017;-73
2022/03/21 21:55:20;;;;;;;58.17;34.00;;;8.50;99.90;;;;;;6243386;23;20009;-74
2022/03/21 21:57:47;;;;;;;60.60;31.30;;;8.50;99.90;;;;;;6192246;23;20047;-72
2022/03/21 22:00:15;;;;;;;55.13;33.05;;;8.40;99.90;;;;;;6217846;23;20044;-72
2022/03/21 22:02:42;;;;;;;56.55;33.78;;;8.40;99.90;;;;;;6217693;23;20012;-74
2022/03/21 22:05:12;;;;;;;55.55;32.10;;;8.40;99.90;;;;;;6243493;23;20060;-73
2022/03/21 22:07:38;;;;;;;59.55;32.80;;;8.30;99.90;;;;;;6242462;23;20033;-72
2022/03/21 22:10:05;;;;;;;64.25;34.40;;;8.30;99.90;;;;;;6243196;22;20065;-73
2022/03/21 22:12:32;;;;;;;54.65;33.35;;;8.30;99.90;;;;;;6242966;23;20016;-73
2022/03/21 22:14:58;;;;;;;54.88;32.75;;;8.30;99.90;;;;;;6217110;23;20012;-73
2022/03/21 22:17:25;;;;;;;53.70;33.08;;;8.20;99.90;;;;;;6217638;23;20060;-73
2022/03/21 22:19:54;;;;;;;51.55;31.58;;;8.20;99.90;;;;;;6243250;23;20044;-73
2022/03/21 22:22:22;;;;;;;52.10;31.83;;;8.20;99.90;;;;;;6193010;23;20068;-72
2022/03/21 22:24:49;;;;;;;53.83;31.63;;;8.10;99.90;;;;;;6243373;22;20004;-73
2022/03/21 22:27:16;;;;;;;53.75;31.67;;;8.10;99.90;;;;;;6192874;23;20013;-73
2022/03/21 22:29:43;;;;;;;53.42;31.30;;;8.10;99.90;;;;;;6217491;23;20004;-73
2022/03/21 22:32:12;;;;;;;49.53;30.20;;;8.00;99.90;;;;;;6217508;23;20012;-72
2022/03/21 22:34:38;;;;;;;54.42;31.73;;;8.00;99.90;;;;;;6242085;23;19997;-73
2022/03/21 22:37:08;;;;;;;54.42;32.08;;;8.00;99.90;;;;;;6242822;23;20008;-73
2022/03/21 22:47:10;;;;;;;59.92;33.50;;;7.90;99.90;;;;;;6192483;23;20003;-74
2022/03/21 22:47:41;;;;;;;51.75;31.67;;;7.80;99.90;;;;;;6242712;23;20019;-72
2022/03/21 22:50:08;;;;;;;49.90;31.85;;;7.80;99.90;;;;;;6216455;23;19997;-74
2022/03/21 22:52:34;;;;;;;54.65;33.08;;;7.80;99.90;;;;;;6216513;23;20017;-72
2022/03/21 22:55:00;;;;;;;53.25;32.65;;;7.80;99.90;;;;;;6238477;23;20019;-72
2022/03/21 22:57:27;;;;;;;53.42;33.03;;;7.70;99.90;;;;;;6242095;23;20013;-72
2022/03/21 22:59:54;;;;;;;54.13;32.95;;;7.70;99.90;;;;;;6241768;23;20012;-72
2022/03/21 23:02:21;;;;;;;54.53;32.63;;;7.70;99.90;;;;;;6192265;23;20055;-74
2022/03/21 23:04:48;;;;;;;54.50;33.58;;;7.70;99.90;;;;;;6192353;23;20023;-73
2022/03/21 23:07:15;;;;;;;54.60;33.20;;;7.70;99.90;;;;;;6216110;23;20016;-72